Time;durP1;ratioP1;P1;durP2;ratioP2;P2;SDS_P1;SDS_P2;PMS_P1;PMS_P2;Temp;Humidity;BMP_temperature;BMP_pressure;BME280_temperature;BME280_humidity;BME280_pressure;Samples;Min_cycle;Max_cycle;Signal;HPM_P1;HPM_P2
2024/04/20 00:01:37;;;;;;;;;;;;;;;20.81;38.12;100362.92;103156;1289;62258;-77
2024/04/20 00:04:03;;;;;;;;;;;;;;;20.81;37.97;100363.44;102876;1292;62265;-78
2024/04/20 00:06:28;;;;;;;;;;;;;;;20.80;37.99;100362.45;103156;1294;62204;-79
2024/04/20 00:08:54;;;;;;;;;;;;;;;20.80;38.08;100362.06;103128;1294;62194;-79
2024/04/20 00:11:20;;;;;;;;;;;;;;;20.80;38.12;100365.48;103127;1295;62764;-77
2024/04/20 00:13:49;;;;;;;;;;;;;;;20.80;38.20;100359.92;103119;1291;75235;-78
2024/04/20 00:16:15;;;;;;;;;;;;;;;20.80;38.15;100354.78;103185;1289;62108;-78
2024/04/20 00:18:41;;;;;;;;;;;;;;;20.81;38.25;100356.69;103160;1289;62194;-78
2024/04/20 00:21:07;;;;;;;;;;;;;;;20.80;38.01;100355.14;103128;1289;62195;-78
2024/04/20 00:23:33;;;;;;;;;;;;;;;20.80;38.18;100351.21;102992;1289;62222;-78
2024/04/20 00:26:04;;;;;;;;;;;;;;;20.80;38.16;100349.05;103025;1294;62211;-79
2024/04/20 00:28:29;;;;;;;;;;;;;;;20.80;38.31;100344.41;102989;1289;62220;-80
2024/04/20 00:31:01;;;;;;;;;;;;;;;20.80;38.26;100339.78;103033;1294;63333;-79
2024/04/20 00:33:27;;;;;;;;;;;;;;;20.79;38.31;100334.81;103014;1289;74072;-79
2024/04/20 00:35:52;;;;;;;;;;;;;;;20.79;38.27;100335.16;103109;1290;63456;-78
2024/04/20 00:38:18;;;;;;;;;;;;;;;20.79;38.17;100331.25;103093;1289;62129;-78
2024/04/20 00:40:52;;;;;;;;;;;;;;;20.79;38.22;100322.48;103004;1294;62190;-77
2024/04/20 00:43:19;;;;;;;;;;;;;;;20.79;38.24;100326.79;102838;1289;73910;-78
2024/04/20 00:45:44;;;;;;;;;;;;;;;20.79;38.33;100332.86;103117;1289;62031;-79
2024/04/20 00:48:10;;;;;;;;;;;;;;;20.79;38.28;100332.83;103031;1289;62193;-78
2024/04/20 00:50:37;;;;;;;;;;;;;;;20.79;38.31;100331.23;103119;1289;63287;-80
2024/04/20 00:53:12;;;;;;;;;;;;;;;20.79;38.29;100329.46;103063;1293;75286;-79
2024/04/20 00:55:38;;;;;;;;;;;;;;;20.79;38.27;100325.73;103032;1294;62078;-78
2024/04/20 00:58:06;;;;;;;;;;;;;;;20.79;38.43;100323.77;103044;1289;62261;-81
2024/04/20 01:00:32;;;;;;;;;;;;;;;20.79;38.38;100325.02;103050;1291;72371;-78
2024/04/20 01:02:59;;;;;;;;;;;;;;;20.79;38.47;100330.21;103102;1288;62187;-79
2024/04/20 01:05:24;;;;;;;;;;;;;;;20.78;38.44;100334.37;103051;1291;63402;-80
2024/04/20 01:07:50;;;;;;;;;;;;;;;20.78;38.43;100336.67;103043;1289;62252;-78
2024/04/20 01:10:15;;;;;;;;;;;;;;;20.79;38.37;100334.51;103041;1294;62200;-80
2024/04/20 01:12:41;;;;;;;;;;;;;;;20.78;38.48;100332.22;103067;1289;62667;-78
2024/04/20 01:15:07;;;;;;;;;;;;;;;20.78;38.42;100335.08;103112;1289;62191;-79
2024/04/20 01:17:33;;;;;;;;;;;;;;;20.78;38.44;100344.02;103052;1290;62184;-78
2024/04/20 01:19:58;;;;;;;;;;;;;;;20.78;38.49;100344.73;103125;1289;62227;-78
2024/04/20 01:22:24;;;;;;;;;;;;;;;20.78;38.54;100335.65;103090;1294;62283;-78
2024/04/20 01:24:50;;;;;;;;;;;;;;;20.78;38.53;100329.88;103159;1289;63411;-78
2024/04/20 01:27:15;;;;;;;;;;;;;;;20.78;38.47;100327.07;102868;1289;62251;-79
2024/04/20 01:29:41;;;;;;;;;;;;;;;20.78;38.47;100329.19;103117;1292;63408;-78
2024/04/20 01:32:07;;;;;;;;;;;;;;;20.78;38.56;100327.60;103070;1289;62200;-79
2024/04/20 01:34:32;;;;;;;;;;;;;;;20.77;38.57;100325.14;102994;1289;63491;-80
2024/04/20 01:36:58;;;;;;;;;;;;;;;20.77;38.50;100324.41;103059;1289;62191;-79
2024/04/20 01:39:23;;;;;;;;;;;;;;;20.76;38.61;100325.70;103107;1294;62296;-79
2024/04/20 01:41:49;;;;;;;;;;;;;;;20.77;38.66;100321.23;103239;1289;62197;-77
2024/04/20 01:44:15;;;;;;;;;;;;;;;20.76;38.79;100313.73;103033;1289;62159;-79
2024/04/20 01:46:41;;;;;;;;;;;;;;;20.77;38.65;100312.09;102885;1289;62282;-79
2024/04/20 01:49:10;;;;;;;;;;;;;;;20.76;38.86;100301.95;103107;1289;75397;-78
2024/04/20 01:51:35;;;;;;;;;;;;;;;20.76;38.69;100297.46;103054;1293;62171;-78
2024/04/20 01:54:05;;;;;;;;;;;;;;;20.76;38.74;100290.34;103089;1293;62110;-79
2024/04/20 01:56:31;;;;;;;;;;;;;;;20.76;38.80;100286.56;103055;1290;72643;-79
2024/04/20 01:58:57;;;;;;;;;;;;;;;20.75;38.70;100284.45;103158;1289;63361;-78
2024/04/20 02:01:22;;;;;;;;;;;;;;;20.75;38.62;100287.31;103080;1289;62902;-79
2024/04/20 02:03:48;;;;;;;;;;;;;;;20.76;38.66;100288.92;103140;1289;62239;-78
2024/04/20 02:06:13;;;;;;;;;;;;;;;20.76;38.92;100291.02;103147;1292;62346;-78
2024/04/20 02:08:39;;;;;;;;;;;;;;;20.75;38.68;100296.09;102797;1289;72382;-78
2024/04/20 02:11:04;;;;;;;;;;;;;;;20.75;38.81;100298.59;103041;1289;63291;-80
2024/04/20 02:13:30;;;;;;;;;;;;;;;20.75;38.84;100303.08;103110;1289;62146;-78
2024/04/20 02:15:56;;;;;;;;;;;;;;;20.75;38.89;100301.83;103059;1289;62366;-78
2024/04/20 02:18:21;;;;;;;;;;;;;;;20.76;38.94;100298.58;103106;1289;62963;-78
2024/04/20 02:20:47;;;;;;;;;;;;;;;20.75;38.99;100298.80;103012;1294;71230;-79
2024/04/20 02:23:14;;;;;;;;;;;;;;;20.75;38.90;100302.77;103030;1289;62216;-79
2024/04/20 02:25:39;;;;;;;;;;;;;;;20.75;39.01;100301.69;102639;1289;733262;-77
2024/04/20 02:28:05;;;;;;;;;;;;;;;20.75;39.05;100298.46;103132;1289;62233;-78
2024/04/20 02:30:30;;;;;;;;;;;;;;;20.75;39.02;100297.92;103152;1289;62184;-78
2024/04/20 02:32:56;;;;;;;;;;;;;;;20.75;38.93;100302.96;102879;1289;63539;-80
2024/04/20 02:35:21;;;;;;;;;;;;;;;20.74;39.05;100304.58;103189;1289;62127;-79
2024/04/20 02:37:47;;;;;;;;;;;;;;;20.74;38.99;100301.91;103118;1289;62188;-78
2024/04/20 02:40:14;;;;;;;;;;;;;;;20.75;38.96;100297.42;103014;1292;62291;-78
2024/04/20 02:42:40;;;;;;;;;;;;;;;20.74;38.98;100291.91;103030;1289;63293;-79
2024/04/20 02:45:07;;;;;;;;;;;;;;;20.74;39.09;100286.17;103109;1289;62108;-79
2024/04/20 02:47:32;;;;;;;;;;;;;;;20.74;39.02;100281.69;103221;1294;62274;-79
2024/04/20 02:49:58;;;;;;;;;;;;;;;20.74;39.04;100279.40;103151;1289;62200;-78
2024/04/20 02:52:24;;;;;;;;;;;;;;;20.74;39.02;100283.37;103107;1293;62133;-78
2024/04/20 02:54:50;;;;;;;;;;;;;;;20.74;39.10;100283.51;103149;1289;62223;-79
2024/04/20 02:57:16;;;;;;;;;;;;;;;20.74;39.09;100285.68;103150;1289;63271;-79
2024/04/20 02:59:41;;;;;;;;;;;;;;;20.74;39.19;100292.65;103010;1289;62104;-78
2024/04/20 03:02:07;;;;;;;;;;;;;;;20.73;39.07;100300.89;103103;1294;62210;-78
2024/04/20 03:04:33;;;;;;;;;;;;;;;20.74;39.17;100312.33;103038;1289;63188;-77
2024/04/20 03:06:58;;;;;;;;;;;;;;;20.74;39.25;100322.70;103086;1294;63265;-78
2024/04/20 03:09:24;;;;;;;;;;;;;;;20.73;39.07;100323.80;103108;1289;62978;-78
2024/04/20 03:11:50;;;;;;;;;;;;;;;20.74;39.14;100318.23;103075;1289;62200;-79
2024/04/20 03:14:16;;;;;;;;;;;;;;;20.73;39.12;100317.52;103052;1289;63223;-79
2024/04/20 03:16:41;;;;;;;;;;;;;;;20.73;39.24;100318.79;103110;1289;62194;-78
2024/04/20 03:19:09;;;;;;;;;;;;;;;20.73;39.26;100320.05;103051;1294;62175;-79
2024/04/20 03:21:34;;;;;;;;;;;;;;;20.73;39.19;100319.86;103176;1289;63315;-78
2024/04/20 03:24:00;;;;;;;;;;;;;;;20.73;39.33;100316.14;102878;1289;63380;-80
2024/04/20 03:26:26;;;;;;;;;;;;;;;20.73;39.19;100319.52;103131;1289;62111;-79
2024/04/20 03:28:52;;;;;;;;;;;;;;;20.73;39.20;100324.38;103186;1294;63310;-77
2024/04/20 03:31:17;;;;;;;;;;;;;;;20.73;39.22;100323.84;103114;1289;62200;-79
2024/04/20 03:33:43;;;;;;;;;;;;;;;20.73;39.33;100328.30;103125;1289;62219;-78
2024/04/20 03:36:09;;;;;;;;;;;;;;;20.73;39.44;100337.42;103054;1289;63382;-79
2024/04/20 03:38:34;;;;;;;;;;;;;;;20.73;39.26;100345.14;103152;1289;62208;-79
2024/04/20 03:41:00;;;;;;;;;;;;;;;20.73;39.34;100351.37;103025;1294;62213;-79
2024/04/20 03:43:26;;;;;;;;;;;;;;;20.73;39.20;100356.03;103145;1289;63338;-80
2024/04/20 03:45:52;;;;;;;;;;;;;;;20.72;39.32;100358.21;102844;1289;63296;-79
2024/04/20 03:48:17;;;;;;;;;;;;;;;20.72;39.40;100356.45;103114;1294;62131;-78
2024/04/20 03:50:55;;;;;;;;;;;;;;;20.72;39.39;100355.35;103121;1289;63619;-79
2024/04/20 03:53:22;;;;;;;;;;;;;;;20.73;39.38;100352.11;102852;1290;77460;-79
2024/04/20 03:55:50;;;;;;;;;;;;;;;20.72;39.50;100356.26;103120;1294;62152;-78
2024/04/20 03:58:15;;;;;;;;;;;;;;;20.72;39.40;100358.75;103082;1289;62105;-81
2024/04/20 04:00:41;;;;;;;;;;;;;;;20.72;39.42;100361.98;103135;1294;62197;-78
2024/04/20 04:03:14;;;;;;;;;;;;;;;20.72;39.38;100362.52;103114;1289;62197;-79
2024/04/20 04:05:41;;;;;;;;;;;;;;;20.72;39.46;100365.91;103129;1289;63343;-79
2024/04/20 04:08:06;;;;;;;;;;;;;;;20.72;39.51;100364.86;103130;1293;62155;-78
2024/04/20 04:10:32;;;;;;;;;;;;;;;20.72;39.36;100364.68;103066;1288;62286;-79
2024/04/20 04:13:03;;;;;;;;;;;;;;;20.72;39.48;100364.33;103049;1289;63246;-79
2024/04/20 04:15:28;;;;;;;;;;;;;;;20.72;39.58;100363.59;103162;1289;62220;-79
2024/04/20 04:17:54;;;;;;;;;;;;;;;20.72;39.48;100363.25;103154;1289;62203;-79
2024/04/20 04:20:20;;;;;;;;;;;;;;;20.72;39.61;100363.23;103140;1289;62707;-78
2024/04/20 04:22:46;;;;;;;;;;;;;;;20.72;39.34;100365.23;102786;1289;62261;-80
2024/04/20 04:25:11;;;;;;;;;;;;;;;20.72;39.57;100365.94;103092;1294;62252;-79
2024/04/20 04:27:37;;;;;;;;;;;;;;;20.72;39.58;100368.80;103126;1289;62207;-79
2024/04/20 04:30:02;;;;;;;;;;;;;;;20.72;39.51;100372.57;103104;1289;62110;-80
2024/04/20 04:32:28;;;;;;;;;;;;;;;20.71;39.57;100373.48;103236;1289;62223;-79
2024/04/20 04:34:54;;;;;;;;;;;;;;;20.71;39.57;100376.16;102868;1289;62166;-79
2024/04/20 04:37:19;;;;;;;;;;;;;;;20.71;39.47;100377.45;103079;1289;62286;-78
2024/04/20 04:39:45;;;;;;;;;;;;;;;20.71;39.45;100374.77;103195;1289;62195;-78
2024/04/20 04:42:10;;;;;;;;;;;;;;;20.71;39.41;100367.80;103112;1289;62099;-79
2024/04/20 04:44:39;;;;;;;;;;;;;;;20.71;39.72;100366.71;103144;1295;62133;-79
2024/04/20 04:47:07;;;;;;;;;;;;;;;20.71;39.62;100368.89;103078;1289;75179;-79
2024/04/20 04:49:33;;;;;;;;;;;;;;;20.70;39.63;100374.11;103058;1289;62184;-79
2024/04/20 04:51:58;;;;;;;;;;;;;;;20.70;39.55;100374.45;103085;1292;63324;-79
2024/04/20 04:54:25;;;;;;;;;;;;;;;20.71;39.53;100375.70;103133;1294;62197;-78
2024/04/20 04:56:52;;;;;;;;;;;;;;;20.70;39.40;100374.10;103151;1289;63481;-78
2024/04/20 04:59:21;;;;;;;;;;;;;;;20.70;39.57;100373.75;103097;1289;63258;-79
2024/04/20 05:01:48;;;;;;;;;;;;;;;20.70;39.58;100376.62;103175;1294;62073;-79
2024/04/20 05:04:14;;;;;;;;;;;;;;;20.70;39.60;100373.96;103134;1289;72483;-80
2024/04/20 05:06:41;;;;;;;;;;;;;;;20.70;39.59;100378.08;103134;1292;75141;-79
2024/04/20 05:09:07;;;;;;;;;;;;;;;20.70;39.47;100381.42;103083;1289;62172;-78
2024/04/20 05:11:34;;;;;;;;;;;;;;;20.70;39.51;100380.92;103136;1289;62200;-81
2024/04/20 05:13:59;;;;;;;;;;;;;;;20.70;39.65;100380.75;103108;1294;62159;-78
2024/04/20 05:16:25;;;;;;;;;;;;;;;20.70;39.54;100384.70;103116;1289;62178;-78
2024/04/20 05:18:52;;;;;;;;;;;;;;;20.70;39.53;100390.23;103067;1289;62319;-78
2024/04/20 05:21:18;;;;;;;;;;;;;;;20.69;39.60;100396.17;103137;1294;62335;-79
2024/04/20 05:23:43;;;;;;;;;;;;;;;20.70;39.65;100390.80;102770;1295;63212;-78
2024/04/20 05:26:09;;;;;;;;;;;;;;;20.70;39.62;100397.40;102833;1289;62203;-79
2024/04/20 05:28:34;;;;;;;;;;;;;;;20.70;39.61;100404.38;103034;1291;75577;-78
2024/04/20 05:31:00;;;;;;;;;;;;;;;20.70;39.58;100405.27;102892;1293;62179;-78
2024/04/20 05:33:26;;;;;;;;;;;;;;;20.70;39.63;100413.49;103121;1289;63229;-79
2024/04/20 05:35:51;;;;;;;;;;;;;;;20.70;39.63;100413.33;103174;1289;63380;-79
2024/04/20 05:38:17;;;;;;;;;;;;;;;20.69;39.58;100411.59;103172;1295;62139;-79
2024/04/20 05:40:42;;;;;;;;;;;;;;;20.70;39.59;100409.04;102874;1289;75206;-79
2024/04/20 05:43:08;;;;;;;;;;;;;;;20.69;39.55;100404.02;103158;1293;62117;-79
2024/04/20 05:45:38;;;;;;;;;;;;;;;20.69;39.55;100398.50;103066;1289;62200;-78
2024/04/20 05:48:03;;;;;;;;;;;;;;;20.70;39.67;100388.09;103161;1291;72380;-78
2024/04/20 05:50:29;;;;;;;;;;;;;;;20.69;39.65;100380.42;103091;1294;63425;-78
2024/04/20 05:52:55;;;;;;;;;;;;;;;20.70;39.58;100369.67;103127;1294;63420;-78
2024/04/20 05:55:20;;;;;;;;;;;;;;;20.70;39.70;100364.83;103166;1289;63267;-79
2024/04/20 05:57:46;;;;;;;;;;;;;;;20.70;39.74;100356.22;103113;1294;62223;-79
2024/04/20 06:00:12;;;;;;;;;;;;;;;20.70;39.73;100348.39;103133;1294;62234;-79
2024/04/20 06:02:37;;;;;;;;;;;;;;;20.71;39.62;100340.64;102897;1295;62282;-78
2024/04/20 06:05:03;;;;;;;;;;;;;;;20.71;39.72;100338.14;103158;1289;62200;-78
2024/04/20 06:07:29;;;;;;;;;;;;;;;20.71;39.65;100335.64;103079;1289;62722;-78
2024/04/20 06:09:55;;;;;;;;;;;;;;;20.70;39.66;100326.71;103094;1289;63465;-80
2024/04/20 06:12:21;;;;;;;;;;;;;;;20.71;39.68;100329.17;103147;1289;62206;-80
2024/04/20 06:14:46;;;;;;;;;;;;;;;20.71;39.72;100327.73;103155;1294;62210;-78
2024/04/20 06:17:13;;;;;;;;;;;;;;;20.71;39.61;100325.20;103093;1294;62195;-79
2024/04/20 06:19:38;;;;;;;;;;;;;;;20.72;39.81;100313.38;103097;1293;63446;-78
2024/04/20 06:22:04;;;;;;;;;;;;;;;20.72;39.78;100310.69;103110;1294;62200;-79
2024/04/20 06:24:30;;;;;;;;;;;;;;;20.72;39.74;100311.73;103084;1294;62197;-79
2024/04/20 06:26:56;;;;;;;;;;;;;;;20.72;39.64;100309.40;103073;1289;62210;-78
2024/04/20 06:29:23;;;;;;;;;;;;;;;20.73;39.68;100305.44;102813;1289;63357;-78
2024/04/20 06:31:50;;;;;;;;;;;;;;;20.73;39.70;100303.23;103137;1294;62194;-78
2024/04/20 06:34:15;;;;;;;;;;;;;;;20.73;39.65;100294.65;103191;1294;62201;-78
2024/04/20 06:36:41;;;;;;;;;;;;;;;20.73;39.77;100289.62;103042;1289;62290;-79
2024/04/20 06:39:06;;;;;;;;;;;;;;;20.74;39.77;100296.00;103187;1289;62161;-78
2024/04/20 06:41:32;;;;;;;;;;;;;;;20.74;39.78;100293.52;103131;1289;62346;-79
2024/04/20 06:43:59;;;;;;;;;;;;;;;20.75;39.70;100291.89;103080;1292;63291;-78
2024/04/20 06:46:29;;;;;;;;;;;;;;;20.75;39.78;100298.07;103102;1294;72264;-78
2024/04/20 06:48:54;;;;;;;;;;;;;;;20.76;39.81;100308.60;103084;1293;74887;-80
2024/04/20 06:51:20;;;;;;;;;;;;;;;20.76;39.84;100318.05;103055;1289;62245;-80
2024/04/20 06:53:46;;;;;;;;;;;;;;;20.76;39.86;100328.40;103181;1294;62171;-80
2024/04/20 06:56:12;;;;;;;;;;;;;;;20.77;39.93;100335.15;103082;1294;62164;-80
2024/04/20 06:58:41;;;;;;;;;;;;;;;20.77;39.83;100340.67;103113;1293;62449;-78
2024/04/20 07:01:10;;;;;;;;;;;;;;;20.78;39.80;100348.65;103163;1289;62210;-78
2024/04/20 07:03:36;;;;;;;;;;;;;;;20.79;39.98;100352.74;103127;1292;63526;-79
2024/04/20 07:06:01;;;;;;;;;;;;;;;20.79;39.92;100355.41;102742;1289;62209;-77
2024/04/20 07:08:28;;;;;;;;;;;;;;;20.79;39.99;100354.67;103026;1289;62283;-79
2024/04/20 07:11:00;;;;;;;;;;;;;;;20.79;40.04;100364.70;103152;1293;63242;-79
2024/04/20 07:13:46;;;;;;;;;;;;;;;20.79;40.00;100365.40;103166;1290;62185;-79
2024/04/20 07:16:12;;;;;;;;;;;;;;;20.80;40.01;100371.97;103074;1293;72302;-80
2024/04/20 07:18:37;;;;;;;;;;;;;;;20.80;40.04;100371.97;103138;1289;62519;-79
2024/04/20 07:21:06;;;;;;;;;;;;;;;20.80;40.12;100372.48;103075;1289;62305;-78
2024/04/20 07:23:32;;;;;;;;;;;;;;;20.80;40.24;100374.63;103127;1289;62095;-78
2024/04/20 07:26:02;;;;;;;;;;;;;;;20.80;40.16;100374.23;103165;1289;62235;-78
2024/04/20 07:28:27;;;;;;;;;;;;;;;20.80;40.07;100371.07;103116;1293;75773;-79
2024/04/20 07:30:53;;;;;;;;;;;;;;;20.80;40.03;100368.91;103040;1295;62225;-79
2024/04/20 07:33:19;;;;;;;;;;;;;;;20.80;40.06;100369.42;102850;1295;62187;-79
2024/04/20 07:35:44;;;;;;;;;;;;;;;20.80;40.17;100365.50;103153;1294;62189;-79
2024/04/20 07:38:10;;;;;;;;;;;;;;;20.80;40.08;100364.29;103068;1294;62394;-79
2024/04/20 07:40:36;;;;;;;;;;;;;;;20.80;40.08;100360.85;103262;1294;62191;-78
2024/04/20 07:43:01;;;;;;;;;;;;;;;20.80;40.06;100356.05;103147;1289;62178;-79
2024/04/20 07:45:27;;;;;;;;;;;;;;;20.80;40.09;100355.11;103048;1293;62293;-78
2024/04/20 07:47:53;;;;;;;;;;;;;;;20.80;40.14;100349.27;103086;1289;63185;-78
2024/04/20 07:50:18;;;;;;;;;;;;;;;20.80;40.13;100349.05;103309;1294;62110;-78
2024/04/20 07:52:45;;;;;;;;;;;;;;;20.80;40.23;100348.13;103211;1292;62302;-80
2024/04/20 07:55:11;;;;;;;;;;;;;;;20.80;40.15;100351.37;103025;1290;62309;-78
2024/04/20 07:57:36;;;;;;;;;;;;;;;20.81;40.21;100346.47;103222;1294;62207;-78
2024/04/20 08:00:02;;;;;;;;;;;;;;;20.81;40.13;100341.48;103161;1293;62658;-79
2024/04/20 08:02:28;;;;;;;;;;;;;;;20.82;40.33;100340.52;103168;1294;62261;-79
2024/04/20 08:04:54;;;;;;;;;;;;;;;20.81;40.21;100342.70;103553;1289;62569;-77
2024/04/20 08:07:21;;;;;;;;;;;;;;;20.82;40.13;100349.09;103475;1292;62159;-77
2024/04/20 08:09:47;;;;;;;;;;;;;;;20.83;40.26;100343.26;103168;1293;62187;-77
2024/04/20 08:12:12;;;;;;;;;;;;;;;20.83;40.15;100349.50;103216;1291;62219;-79
2024/04/20 08:14:38;;;;;;;;;;;;;;;20.84;40.17;100348.90;103586;1294;62169;-79
2024/04/20 08:17:03;;;;;;;;;;;;;;;20.84;40.30;100349.42;103280;1294;62184;-79
2024/04/20 08:19:29;;;;;;;;;;;;;;;20.85;40.20;100344.91;103451;1290;63361;-78
2024/04/20 08:21:54;;;;;;;;;;;;;;;20.85;40.26;100344.70;103341;1294;62259;-78
2024/04/20 08:24:20;;;;;;;;;;;;;;;20.86;40.26;100339.30;103206;1294;62171;-79
2024/04/20 08:26:46;;;;;;;;;;;;;;;20.86;40.35;100341.96;102967;1294;62186;-79
2024/04/20 08:29:11;;;;;;;;;;;;;;;20.87;40.30;100341.03;103090;1295;62238;-79
2024/04/20 08:31:37;;;;;;;;;;;;;;;20.86;40.26;100337.31;103060;1289;62180;-79
2024/04/20 08:34:03;;;;;;;;;;;;;;;20.87;40.15;100342.25;103205;1295;63314;-78
2024/04/20 08:36:29;;;;;;;;;;;;;;;20.87;40.32;100342.64;103087;1294;72511;-78
2024/04/20 08:38:56;;;;;;;;;;;;;;;20.86;40.25;100335.48;103081;1293;62212;-78
2024/04/20 08:41:23;;;;;;;;;;;;;;;20.87;40.20;100334.56;103110;1295;62979;-79
2024/04/20 08:43:50;;;;;;;;;;;;;;;20.87;40.29;100336.71;103133;1294;63314;-79
2024/04/20 08:46:15;;;;;;;;;;;;;;;20.87;40.42;100334.17;103095;1290;72572;-80
2024/04/20 08:48:42;;;;;;;;;;;;;;;20.87;40.31;100328.86;103067;1294;62220;-79
2024/04/20 08:51:08;;;;;;;;;;;;;;;20.87;40.41;100331.35;103119;1289;62062;-79
2024/04/20 08:53:34;;;;;;;;;;;;;;;20.87;40.28;100333.48;103041;1294;62172;-78
2024/04/20 08:56:00;;;;;;;;;;;;;;;20.87;40.29;100330.82;103054;1294;62289;-79
2024/04/20 08:58:26;;;;;;;;;;;;;;;20.87;40.34;100334.02;103104;1289;63430;-79
2024/04/20 09:00:51;;;;;;;;;;;;;;;20.87;40.22;100337.09;102843;1294;62263;-78
2024/04/20 09:03:17;;;;;;;;;;;;;;;20.87;40.32;100337.94;103269;1294;62761;-78
2024/04/20 09:05:42;;;;;;;;;;;;;;;20.87;40.23;100335.63;103137;1295;62519;-78
2024/04/20 09:08:08;;;;;;;;;;;;;;;20.88;40.34;100331.83;103046;1294;63299;-78
2024/04/20 09:10:34;;;;;;;;;;;;;;;20.88;40.26;100326.23;103150;1289;63390;-77
2024/04/20 09:12:59;;;;;;;;;;;;;;;20.88;40.22;100326.99;103156;1290;62207;-78
2024/04/20 09:15:26;;;;;;;;;;;;;;;20.88;40.33;100327.14;103132;1293;62251;-79
2024/04/20 09:17:51;;;;;;;;;;;;;;;20.89;40.29;100322.54;103033;1295;62693;-78
2024/04/20 09:20:17;;;;;;;;;;;;;;;20.89;40.19;100312.97;103106;1295;63348;-79
2024/04/20 09:22:42;;;;;;;;;;;;;;;20.88;40.21;100310.00;103143;1295;62209;-79
2024/04/20 09:25:08;;;;;;;;;;;;;;;20.88;40.19;100313.35;103581;1293;63731;-80
2024/04/20 09:27:34;;;;;;;;;;;;;;;20.90;40.24;100314.84;103576;1289;62176;-77
2024/04/20 09:30:03;;;;;;;;;;;;;;;20.90;40.18;100308.91;103476;1295;62258;-78
2024/04/20 09:32:30;;;;;;;;;;;;;;;20.90;40.20;100308.02;103293;1295;72473;-78
2024/04/20 09:34:56;;;;;;;;;;;;;;;20.90;40.22;100304.94;103223;1291;75120;-80
2024/04/20 09:37:23;;;;;;;;;;;;;;;20.91;40.28;100300.45;103276;1294;63242;-79
2024/04/20 09:39:48;;;;;;;;;;;;;;;20.91;40.30;100299.70;103389;1295;62244;-78
2024/04/20 09:42:16;;;;;;;;;;;;;;;20.92;40.18;100298.41;103368;1289;62147;-78
2024/04/20 09:44:43;;;;;;;;;;;;;;;20.92;40.20;100296.09;103175;1291;75191;-78
2024/04/20 09:47:11;;;;;;;;;;;;;;;20.92;40.24;100291.41;103305;1295;62281;-78
2024/04/20 09:49:36;;;;;;;;;;;;;;;20.92;40.19;100293.73;103202;1289;62222;-78
2024/04/20 09:52:13;;;;;;;;;;;;;;;20.92;40.33;100288.73;102846;1295;62228;-78
2024/04/20 09:54:45;;;;;;;;;;;;;;;20.92;40.28;100286.91;103131;1295;74361;-80
2024/04/20 09:57:11;;;;;;;;;;;;;;;20.93;40.13;100288.14;103147;1290;62192;-79
2024/04/20 09:59:36;;;;;;;;;;;;;;;20.92;40.28;100289.58;103220;1295;62196;-79
2024/04/20 10:02:02;;;;;;;;;;;;;;;20.93;40.24;100290.48;103205;1296;62209;-79
2024/04/20 10:04:27;;;;;;;;;;;;;;;20.92;40.23;100287.80;102966;1294;62291;-78
2024/04/20 10:06:53;;;;;;;;;;;;;;;20.93;40.20;100291.53;103187;1289;62204;-79
2024/04/20 10:09:19;;;;;;;;;;;;;;;20.92;40.28;100290.68;103041;1291;63271;-78
2024/04/20 10:11:44;;;;;;;;;;;;;;;20.92;40.15;100290.13;103123;1295;62268;-81
2024/04/20 10:14:10;;;;;;;;;;;;;;;20.92;40.15;100284.59;103064;1295;62212;-78
2024/04/20 10:16:36;;;;;;;;;;;;;;;20.92;40.07;100279.98;103082;1295;62191;-81
2024/04/20 10:19:01;;;;;;;;;;;;;;;20.92;40.21;100274.05;103199;1295;63363;-78
2024/04/20 10:21:28;;;;;;;;;;;;;;;20.93;40.06;100265.59;103044;1292;62568;-79
2024/04/20 10:23:54;;;;;;;;;;;;;;;20.92;40.18;100264.54;103244;1289;62541;-79
2024/04/20 10:26:30;;;;;;;;;;;;;;;20.93;40.10;100257.54;103040;1294;73146;-78
2024/04/20 10:29:09;;;;;;;;;;;;;;;20.93;40.05;100253.38;103082;1294;75248;-77
2024/04/20 10:31:34;;;;;;;;;;;;;;;20.93;40.08;100257.66;103057;1294;62145;-78
2024/04/20 10:34:00;;;;;;;;;;;;;;;20.93;40.18;100251.04;103063;1289;62941;-78
2024/04/20 10:36:26;;;;;;;;;;;;;;;20.93;39.98;100250.15;103091;1294;62180;-79
2024/04/20 10:39:04;;;;;;;;;;;;;;;20.94;40.08;100247.82;103084;1295;62207;-80
2024/04/20 10:41:48;;;;;;;;;;;;;;;20.93;40.08;100240.51;103029;1289;62102;-78
2024/04/20 10:44:14;;;;;;;;;;;;;;;20.94;40.00;100239.38;103138;1289;62134;-79
2024/04/20 10:46:55;;;;;;;;;;;;;;;20.94;39.98;100239.19;103054;1295;62286;-79
2024/04/20 10:49:21;;;;;;;;;;;;;;;20.95;40.08;100242.92;103086;1289;75226;-79
2024/04/20 10:51:51;;;;;;;;;;;;;;;20.95;39.90;100241.66;102847;1298;62192;-78
2024/04/20 10:54:20;;;;;;;;;;;;;;;20.95;39.96;100245.59;103103;1289;62390;-78
2024/04/20 10:56:45;;;;;;;;;;;;;;;20.95;39.90;100245.76;103030;1294;72447;-78
2024/04/20 10:59:11;;;;;;;;;;;;;;;20.96;39.85;100248.42;103034;1292;62261;-79
2024/04/20 11:01:39;;;;;;;;;;;;;;;20.96;40.00;100241.77;102975;1295;63571;-83
2024/04/20 11:04:04;;;;;;;;;;;;;;;20.96;39.83;100241.77;103074;1293;62206;-80
2024/04/20 11:06:30;;;;;;;;;;;;;;;20.96;39.93;100234.41;102789;1295;62190;-78
2024/04/20 11:08:56;;;;;;;;;;;;;;;20.96;39.78;100231.71;103040;1295;62204;-78
2024/04/20 11:11:22;;;;;;;;;;;;;;;20.96;39.92;100227.80;103155;1290;62321;-79
2024/04/20 11:14:00;;;;;;;;;;;;;;;20.96;39.94;100226.88;103156;1294;62176;-79
2024/04/20 11:16:28;;;;;;;;;;;;;;;20.97;39.80;100229.56;103159;1292;72269;-79
2024/04/20 11:18:54;;;;;;;;;;;;;;;20.97;39.88;100230.60;103085;1293;75147;-78
2024/04/20 11:21:20;;;;;;;;;;;;;;;20.97;39.85;100226.84;102910;1289;62202;-78
2024/04/20 11:23:46;;;;;;;;;;;;;;;20.97;39.87;100224.30;103088;1295;62219;-77
2024/04/20 11:26:12;;;;;;;;;;;;;;;20.97;39.81;100222.33;103141;1294;62266;-77
2024/04/20 11:28:37;;;;;;;;;;;;;;;20.97;39.76;100219.84;103012;1301;62175;-78
2024/04/20 11:31:04;;;;;;;;;;;;;;;20.98;39.84;100233.40;103128;1289;63315;-78
2024/04/20 11:33:30;;;;;;;;;;;;;;;20.98;39.84;100226.93;102853;1289;63468;-79
2024/04/20 11:35:56;;;;;;;;;;;;;;;20.98;39.85;100230.50;103133;1289;62649;-80
2024/04/20 11:38:22;;;;;;;;;;;;;;;20.98;39.83;100224.58;103181;1295;62203;-79
2024/04/20 11:40:49;;;;;;;;;;;;;;;20.99;39.85;100222.59;103123;1295;62194;-79
2024/04/20 11:43:22;;;;;;;;;;;;;;;20.99;39.86;100217.73;103183;1289;63421;-78
2024/04/20 11:45:51;;;;;;;;;;;;;;;20.99;39.74;100216.45;103185;1290;62171;-79
2024/04/20 11:48:36;;;;;;;;;;;;;;;20.99;39.88;100212.34;103259;1292;72360;-78
2024/04/20 11:51:04;;;;;;;;;;;;;;;21.00;39.94;100207.30;103087;1291;75247;-78
2024/04/20 11:56:14;;;;;;;;;;;;;;;21.00;39.70;100212.48;103507;1289;62191;-79
2024/04/20 11:58:44;;;;;;;;;;;;;;;21.00;39.84;100213.67;103633;1295;62235;-79
2024/04/20 12:01:10;;;;;;;;;;;;;;;21.01;39.82;100210.60;103344;1293;74218;-80
2024/04/20 12:03:35;;;;;;;;;;;;;;;21.01;39.70;100208.96;103331;1295;62864;-79
2024/04/20 12:06:01;;;;;;;;;;;;;;;21.01;39.79;100207.71;103146;1289;62206;-79
2024/04/20 12:08:27;;;;;;;;;;;;;;;21.01;39.78;100210.02;103161;1289;62185;-78
2024/04/20 12:10:52;;;;;;;;;;;;;;;21.01;39.72;100210.17;103502;1289;62190;-78
2024/04/20 12:13:18;;;;;;;;;;;;;;;21.02;39.67;100211.24;103490;1294;75219;-78
2024/04/20 12:15:43;;;;;;;;;;;;;;;21.02;39.79;100211.38;103481;1295;62197;-79
2024/04/20 12:18:09;;;;;;;;;;;;;;;21.03;39.76;100204.91;103404;1288;62198;-79
2024/04/20 12:20:34;;;;;;;;;;;;;;;21.02;39.77;100200.27;103268;1295;62705;-79
2024/04/20 12:23:00;;;;;;;;;;;;;;;21.02;39.78;100191.35;103295;1289;62210;-79
2024/04/20 12:25:25;;;;;;;;;;;;;;;21.02;39.84;100180.59;103207;1289;75360;-78